ADDS METAR Data INFO
IDs: Format: Raw Decoded Include TAF

Data at: 0858 UTC 19 Jun 2018

KDMW 190835Z AUTO 31004KT 10SM SCT043 BKN048 BKN070 A2987 RMK AO2 LTG DSNT NW
KDMW 190815Z AUTO 31003KT 10SM CLR A2987 RMK AO2 LTG DSNT NW
KDMW 190755Z AUTO 28005KT 10SM SCT060 A2987 RMK AO2
KDMW 190735Z AUTO 28009KT 10SM CLR 28/22 A2987 RMK AO2 LTG DSNT NW
KDMW 190715Z AUTO 28007KT 10SM CLR 28/22 A2987 RMK AO2
KDMW 190655Z AUTO 27007KT 10SM SCT050 28/22 A2987 RMK AO2
KDMW 190635Z AUTO 27004KT 10SM CLR 28/22 A2987 RMK AO2
KDMW 190615Z AUTO 25003KT 10SM CLR 27/ A2987 RMK AO2 LTG DSNT NW
KDMW 190555Z AUTO 24005KT 10SM CLR 27/23 A2988 RMK AO2
KDMW 190535Z AUTO 24004KT 10SM CLR A2989 RMK AO2
KDMW 190515Z AUTO 24005KT 10SM CLR 27/23 A2989 RMK AO2
KDMW 190455Z AUTO 24005KT 10SM CLR 27/24 A2990 RMK AO2 LTG DSNT NW
KDMW 190435Z AUTO 23006KT 10SM CLR 27/24 A2990 RMK AO2
KDMW 190415Z AUTO 24006KT 10SM CLR 27/24 A2990 RMK AO2
KDMW 190355Z AUTO 24006KT 10SM CLR 27/24 A2990 RMK AO2
KDMW 190335Z AUTO 25005KT 10SM CLR 27/24 A2991 RMK AO2 LTG DSNT NW
KDMW 190315Z AUTO 24005KT 10SM CLR 28/24 A2991 RMK AO2
KDMW 190255Z AUTO 23005KT 10SM CLR 28/24 A2991 RMK AO2
KDMW 190235Z AUTO 24004KT 10SM CLR 28/24 A2992 RMK AO2 LTG DSNT N
KDMW 190215Z AUTO 24005KT 10SM CLR 28/24 A2991 RMK AO2 LTG DSNT NW
KDMW 190155Z AUTO 23006KT 10SM CLR 28/24 A2991 RMK AO2
KDMW 190135Z AUTO 21003KT 10SM CL 28/24 A2990 RMK AO2
KDMW 190115Z AUTO 24003KT 10SM CLR 28/25 A2990 RMK AO2 LTG DSNT NE
KDMW 190055Z AUTO 23005KT 10SM CLR 29/25 A2990 RMK AO2
KDMW 190035Z AUTO 23003KT 10SM C 29/25 A2990 RMK AO2
KDMW 190015Z AUTO 22003KT 10SM CLR 30/25 A2990 RMK AO2
KDMW 182355Z AUTO 00000KT 10SM CLR 31/25 A2990 RMK AO2
KDMW 182335Z AUTO 19003KT 10SM CLR 31/24 A2990 RMK AO2
KDMW 182315Z AUTO 19003KT 10SM CLR 31/24 A2990 RMK AO2
KDMW 182255Z AUTO 20007KT 10SM CLR 32/24 A2990 RMK AO2
KDMW 182235Z AUTO 20006KT 10SM CLR 33/23 A2991 RMK AO2
KDMW 182215Z AUTO 21005KT 10SM CLR 32/23 A2992 RMK AO2 LTG DSNT SE
KDMW 182155Z AUTO 20005KT 10SM CLR 33/23 A2993 RMK AO2
KDMW 182135Z AUTO 18006KT 10SM CLR 33/22 A2995 RMK AO2
KDMW 182115Z AUTO 18006KT 10SM CLR 33/22 A2995 RMK AO2
KDMW 182055Z AUTO 20007KT 10SM CLR 32/22 A2996 RMK AO2 LTG DSNT SE AND NW
KDMW 182035Z AUTO 21008KT 10SM VCTS CLR 32/23 A2997 RMK AO2 LTG DSNT SE AND S P0003
KDMW 182015Z AUTO 23005KT 10SM SCT010 SCT041 29/23 A2998 RMK AO2 LTG DSNT NE THRU SW P0003
KDMW 181955Z AUTO 00000KT 5SM RA SCT010 SCT028 BKN042 31/25 A2997 RMK AO2 LTG DSNT SW P0002
KDMW 181935Z AUTO 23010G14KT 10SM SCT043 SCT060 34/23 A2998 RMK AO2 LTG DSNT SW AND W
KDMW 181915Z AUTO 24006KT 10SM CLR 34/23 A2998 RMK AO2 LTG DSNT W
KDMW 181855Z AUTO 24004G08KT 10SM SCT037 34/23 A2999 RMK AO2 LTG DSNT W AND NW
KDMW 181835Z AUTO 22010KT 10SM SCT037 33/24 A3000 RMK AO2 LTG DSNT W AND NW
KDMW 181815Z AUTO 22007KT 10SM SCT037 SCT050 33/24 A3000 RMK AO2 LTG DSNT W
KDMW 181755Z AUTO 24005KT 10SM 33/24 A3001 RMK AO2
KDMW 181735Z AUTO 23007KT 210V270 10SM C 33/23 A3002 RMK AO2
KDMW 181715Z AUTO 22006KT 10SM CLR 33/23 A3003 RMK AO2
KDMW 181655Z AUTO 22007KT 10SM CLR 32/23 A3004 RMK AO2
KDMW 181635Z AUTO 23007KT 10SM SCT050 31/23 A3004 RMK AO2 LTG DSNT S
KDMW 181615Z AUTO 26006KT 10SM SCT050 31/23 A3005 RMK AO2
KDMW 181555Z AUTO 22006KT 10SM CLR 31/23 A3005 RMK AO2
KDMW 181535Z AUTO 23007KT 10SM CLR 31/23 A3006 RMK AO2
KDMW 181515Z AUTO 22006KT 10SM CLR 30/22 A3006 RMK AO2
KDMW 181455Z AUTO 23007KT 10SM CLR 29/22 A3006 RMK AO2
KDMW 181435Z AUTO 24007KT 10SM C 29/22 A3006 RMK AO2
KDMW 181415Z AUTO 23006KT 10SM CLR 29/22 A3006 RMK AO2
KDMW 181355Z AUTO 22006KT 10SM CLR 29/22 A3006 RMK AO2
KDMW 181335Z AUTO 24006KT 10SM CLR 28/22 A3006 RMK AO2
KDMW 181315Z AUTO 22006KT 10SM CLR 27/22 A3007 RMK AO2
KDMW 181255Z AUTO 23005KT 10SM CLR 27/22 A3008 RMK AO2
KDMW 181235Z AUTO 22005KT 10SM CLR 26/22 A3008 RMK AO2 LTG DSNT S
KDMW 181215Z AUTO 23006KT 10SM CLR 26/22 A3008 RMK AO2
KDMW 181155Z AUTO 23006KT 10SM CLR 24/22 A3008 RMK AO2
KDMW 181135Z AUTO 24005KT 10SM CLR 24/21 A3008 RMK AO2
KDMW 181115Z AUTO 00000KT 10SM CLR 24/21 A3008 RMK AO2
KDMW 181055Z AUTO 00000KT 10SM CLR 24/21 A3009 RMK AO2
KDMW 181035Z AUTO 00000KT 10SM CLR 23/20 A3009 RMK AO2
KDMW 181015Z AUTO 00000KT 10SM CLR 22/20 A3009 RMK AO2
KDMW 180955Z AUTO 00000KT 10SM CLR 22/20 A3009 RMK AO2
KDMW 180935Z AUTO 00000KT 10SM CLR 23/20 A3009 RMK AO2
KDMW 180915Z AUTO 00000KT 10SM CLR 22/19 A3008 RMK AO2
KDMW 180855Z AUTO 00000KT 10SM CLR 22/19 A3008 RMK AO2
KDMW 180835Z AUTO 00000KT 10SM CLR 23/19 A3008 RMK AO2
KDMW 180815Z AUTO 00000KT 10SM CLR 23/19 A3009 RMK AO2
KDMW 180755Z AUTO 00000KT 10SM CLR 23/19 A3009 RMK AO2
KDMW 180735Z AUTO 00000KT 10SM CLR 23/19 A3009 RMK AO2
KDMW 180715Z AUTO 17004KT 10SM CLR 23/19 A3009 RMK AO2
KDMW 180655Z AUTO 15003KT 10SM CLR 23/19 A3009 RMK AO2
KDMW 180635Z AUTO 00000KT 10SM CLR 23/19 A3009 RMK AO2
KDMW 180615Z AUTO 00000KT 10SM CLR 23/19 A3009 RMK AO2 LTG DSNT S
KDMW 180555Z AUTO 00000KT 10SM CLR 23/19 A3009 RMK AO2
KDMW 180535Z AUTO 00000KT 10SM CLR 24/19 A3010 RMK AO2
KDMW 180515Z AUTO 00000KT 10SM CLR A3010 RMK AO2 LTG DSNT S
KDMW 180455Z AUTO 00000KT 10SM CLR 25/19 A3010 RMK AO2
KDMW 180435Z AUTO 00000KT 10SM CLR 26/19 A3010 RMK AO2
KDMW 180415Z AUTO 00000KT 10SM CLR 26/19 A3010 RMK AO2
KDMW 180355Z AUTO 20004KT 10SM CLR 26/19 A3009 RMK AO2
KDMW 180335Z AUTO 17006KT 10SM CLR 26/19 A3009 RMK AO2 LTG DSNT S
KDMW 180315Z AUTO 17006KT 10SM CLR 27/19 A3009 RMK AO2 LTG DSNT S
KDMW 180255Z AUTO 17005KT 10SM CLR 27/19 A3009 RMK AO2
KDMW 180235Z AUTO 17005KT 10SM CLR 27/19 A3009 RMK AO2
KDMW 180215Z AUTO 16003KT 10SM CLR 27/19 A3010 RMK AO2
KDMW 180155Z AUTO 16003KT 10SM CLR 27/20 A3010 RMK AO2
KDMW 180135Z AUTO 14004KT 10SM CLR 28/20 A3009 RMK AO2
KDMW 180115Z AUTO 14003KT 10SM CLR 28/21 A3009 RMK AO2 LTG DSNT S
KDMW 180055Z AUTO 14003KT 10SM CLR 28/21 A3009 RMK AO2
KDMW 180035Z AUTO 15003KT 10SM SCT085 29/21 A3009 RMK AO2
KDMW 180015Z AUTO 00000KT 10SM BKN085 30/20 A3008 RMK AO2
KDMW 172355Z AUTO 00000KT 10SM CLR 3/20 A3008 RMK AO2
KDMW 172335Z AUTO 00000KT 10SM CLR 31/20 A3007 RMK AO2
KDMW 172310Z AUTO 00000KT 10SM BKN085 A3007 RMK AO2
KDMW 172255Z AUTO 00000KT 10SM BKN075 32/19 A3007 RMK AO2
KDMW 172235Z AUTO 25004KT 10SM SCT044 SCT050 BKN085 A3007 RMK AO2
KDMW 172215Z AUTO 00000KT 10SM BKN046 BKN070 33/19 A3008 RMK AO2
KDMW 172155Z AUTO 00000KT 10SM SCT050 31/20 A3008 RMK AO2
KDMW 172135Z AUTO 26003KT 10SM SCT045 SCT050 32/19 A3008 RMK AO2 LTG DSNT S
KDMW 172115Z AUTO 29005KT 10SM SCT047 33/19 A3008 RMK AO2